Time;durP1;ratioP1;P1;durP2;ratioP2;P2;SDS_P1;SDS_P2;PMS_P1;PMS_P2;Temp;Humidity;BMP_temperature;BMP_pressure;BME280_temperature;BME280_humidity;BME280_pressure;Samples;Min_cycle;Max_cycle;Signal;HPM_P1;HPM_P2
2022/02/14 00:01:50;;;;;;;2.38;0.63;;;9.40;99.90;;;;;;5002198;28;20100;-59
2022/02/14 00:04:17;;;;;;;0.93;0.50;;;9.40;99.90;;;;;;5001242;28;20054;-59
2022/02/14 00:06:44;;;;;;;1.35;0.60;;;9.40;99.90;;;;;;5001493;28;20140;-59
2022/02/14 00:09:10;;;;;;;1.27;0.68;;;9.40;99.90;;;;;;5001412;28;20472;-59
2022/02/14 00:11:37;;;;;;;0.55;0.30;;;9.40;99.90;;;;;;5000436;28;20156;-59
2022/02/14 00:14:04;;;;;;;0.30;0.30;;;9.40;99.90;;;;;;5000201;28;20146;-59
2022/02/14 00:16:31;;;;;;;0.70;0.40;;;9.40;99.90;;;;;;4994365;28;20438;-59
2022/02/14 00:18:57;;;;;;;0.52;0.43;;;9.30;99.90;;;;;;5006209;28;20136;-60
2022/02/14 00:21:24;;;;;;;0.73;0.50;;;9.30;99.90;;;;;;5012307;28;20128;-59
2022/02/14 00:23:51;;;;;;;0.30;0.30;;;9.20;99.90;;;;;;5006263;28;20077;-58
2022/02/14 00:26:18;;;;;;;1.00;0.47;;;9.20;99.90;;;;;;5000769;28;20219;-59
2022/02/14 00:28:44;;;;;;;0.77;0.43;;;9.20;99.90;;;;;;4998587;28;20170;-59
2022/02/14 00:31:11;;;;;;;1.48;0.43;;;9.20;99.90;;;;;;5001548;28;20405;-59
2022/02/14 00:33:38;;;;;;;0.63;0.40;;;9.20;99.90;;;;;;4992401;28;20117;-59
2022/02/14 00:36:05;;;;;;;0.60;0.40;;;9.20;99.90;;;;;;4986236;28;20070;-59
2022/02/14 00:38:31;;;;;;;0.80;0.40;;;9.20;99.90;;;;;;5000323;28;20077;-59
2022/02/14 00:40:58;;;;;;;0.85;0.52;;;9.20;99.90;;;;;;4998302;28;20076;-59
2022/02/14 00:43:26;;;;;;;1.15;0.60;;;9.20;99.90;;;;;;5002572;28;20050;-59
2022/02/14 00:45:53;;;;;;;0.75;0.40;;;9.20;99.90;;;;;;4995872;28;20810;-59
2022/02/14 00:48:20;;;;;;;0.40;0.40;;;9.20;99.90;;;;;;5003726;28;20482;-59
2022/02/14 00:50:47;;;;;;;0.60;0.30;;;9.20;99.90;;;;;;5004523;28;20128;-59
2022/02/14 00:53:14;;;;;;;0.40;0.30;;;9.20;99.90;;;;;;5005003;28;20048;-59
2022/02/14 00:55:41;;;;;;;0.80;0.50;;;9.20;99.90;;;;;;5001799;28;20096;-59
2022/02/14 00:58:08;;;;;;;0.93;0.47;;;9.10;99.90;;;;;;5005942;28;20125;-59
2022/02/14 01:00:35;;;;;;;0.88;0.43;;;9.10;99.90;;;;;;5001527;28;20053;-59
2022/02/14 01:03:03;;;;;;;0.85;0.50;;;9.10;99.90;;;;;;5002850;28;20419;-60
2022/02/14 01:05:30;;;;;;;1.00;0.40;;;9.20;99.90;;;;;;4999946;28;20115;-59
2022/02/14 01:07:56;;;;;;;0.40;0.40;;;9.10;99.90;;;;;;5004118;28;20549;-60
2022/02/14 01:10:23;;;;;;;1.40;0.40;;;9.10;99.90;;;;;;5002011;28;20133;-59
2022/02/14 01:12:50;;;;;;;0.95;0.40;;;9.10;99.90;;;;;;5021104;28;20408;-59
2022/02/14 01:15:17;;;;;;;0.93;0.68;;;9.10;99.90;;;;;;5009547;28;20089;-59
2022/02/14 01:17:43;;;;;;;0.70;0.43;;;9.00;99.90;;;;;;4993271;28;20088;-60
2022/02/14 01:20:11;;;;;;;0.68;0.43;;;9.00;99.90;;;;;;4983928;28;20137;-59
2022/02/14 01:22:39;;;;;;;0.88;0.60;;;9.00;99.90;;;;;;4987970;28;20100;-59
2022/02/14 01:25:07;;;;;;;0.93;0.63;;;8.90;99.90;;;;;;4995952;28;20078;-59
2022/02/14 01:27:34;;;;;;;1.42;0.75;;;8.80;99.90;;;;;;4990589;28;20141;-59
2022/02/14 01:30:00;;;;;;;0.50;0.45;;;8.80;99.90;;;;;;5001362;28;20475;-60
2022/02/14 01:32:27;;;;;;;0.90;0.80;;;8.70;99.90;;;;;;4994210;28;20133;-60
2022/02/14 01:34:55;;;;;;;0.85;0.77;;;8.70;99.90;;;;;;4989626;28;20046;-59
2022/02/14 01:37:22;;;;;;;1.77;0.90;;;8.60;99.90;;;;;;5001875;28;20164;-59
2022/02/14 01:39:49;;;;;;;1.75;0.95;;;8.50;99.90;;;;;;4998479;28;20088;-59
2022/02/14 01:42:16;;;;;;;1.25;0.85;;;8.30;99.90;;;;;;4983113;28;20595;-59
2022/02/14 01:44:44;;;;;;;1.23;1.10;;;8.20;99.90;;;;;;4986849;28;20165;-59
2022/02/14 01:47:12;;;;;;;1.60;1.30;;;8.20;99.90;;;;;;4995573;28;20129;-59
2022/02/14 01:49:39;;;;;;;1.35;0.90;;;8.10;99.90;;;;;;4985015;28;20081;-59
2022/02/14 01:52:06;;;;;;;1.38;1.10;;;8.10;99.90;;;;;;4982053;28;20591;-60
2022/02/14 01:54:38;;;;;;;1.70;1.10;;;8.10;99.90;;;;;;4998824;28;20137;-60
2022/02/14 01:57:05;;;;;;;1.65;1.02;;;8.00;99.90;;;;;;5002295;28;20132;-59
2022/02/14 01:59:33;;;;;;;1.45;1.00;;;8.00;99.90;;;;;;4996290;28;20134;-59
2022/02/14 02:02:04;;;;;;;1.88;1.15;;;8.00;99.90;;;;;;5000188;28;20166;-60
2022/02/14 02:04:30;;;;;;;1.38;1.08;;;8.00;99.90;;;;;;4995607;28;20090;-59
2022/02/14 02:06:57;;;;;;;1.90;1.00;;;8.00;99.90;;;;;;5001524;28;20471;-59
2022/02/14 02:09:24;;;;;;;1.63;1.10;;;8.00;99.90;;;;;;5002535;28;20047;-60
2022/02/14 02:14:36;;;;;;;2.17;1.30;;;7.90;99.90;;;;;;4989341;28;20129;-59
2022/02/14 02:17:03;;;;;;;3.22;1.40;;;7.90;99.90;;;;;;5001264;28;20046;-59
2022/02/14 02:19:30;;;;;;;1.42;1.13;;;7.90;99.90;;;;;;4992126;28;20216;-59
2022/02/14 02:21:57;;;;;;;1.30;1.05;;;8.00;99.90;;;;;;5005005;28;20517;-60
2022/02/14 02:24:24;;;;;;;1.92;1.20;;;7.90;99.90;;;;;;4990847;28;20093;-59
2022/02/14 02:26:57;;;;;;;1.67;1.23;;;7.90;99.90;;;;;;5005526;28;20050;-59
2022/02/14 02:29:24;;;;;;;2.22;1.58;;;7.90;99.90;;;;;;5003780;28;20429;-59
2022/02/14 02:31:51;;;;;;;2.28;1.52;;;7.90;99.90;;;;;;5007419;28;20451;-60
2022/02/14 02:34:18;;;;;;;1.55;1.40;;;7.90;99.90;;;;;;4989922;28;20061;-59
2022/02/14 02:36:49;;;;;;;2.05;1.52;;;7.90;99.90;;;;;;5006387;28;20089;-59
2022/02/14 02:39:16;;;;;;;2.20;1.65;;;7.90;99.90;;;;;;5003547;28;20454;-59
2022/02/14 02:41:42;;;;;;;1.83;1.55;;;7.90;99.90;;;;;;5000907;28;20058;-59
2022/02/14 02:44:09;;;;;;;1.90;1.70;;;7.90;99.90;;;;;;5001662;28;20078;-59
2022/02/14 02:46:37;;;;;;;1.85;1.52;;;7.90;99.90;;;;;;5006442;28;20050;-59
2022/02/14 02:49:16;;;;;;;1.92;1.60;;;7.80;99.90;;;;;;4996702;28;20081;-59
2022/02/14 02:51:44;;;;;;;3.42;1.88;;;7.80;99.90;;;;;;5004969;28;20050;-59
2022/02/14 02:54:11;;;;;;;2.35;1.98;;;7.80;99.90;;;;;;5005132;28;20596;-59
2022/02/14 02:56:39;;;;;;;3.00;1.63;;;7.80;99.90;;;;;;4987503;28;20051;-59
2022/02/14 02:59:06;;;;;;;2.58;1.67;;;7.80;99.90;;;;;;5004095;28;20699;-59
2022/02/14 03:01:34;;;;;;;3.97;2.00;;;7.70;99.90;;;;;;4998488;28;20425;-59
2022/02/14 03:04:01;;;;;;;2.80;1.90;;;7.70;99.90;;;;;;4994019;28;20086;-59
2022/02/14 03:06:28;;;;;;;2.05;1.73;;;7.70;99.90;;;;;;5004516;28;20081;-59
2022/02/14 03:08:55;;;;;;;2.17;1.52;;;7.70;99.90;;;;;;5005529;28;20133;-59
2022/02/14 03:11:22;;;;;;;3.30;1.50;;;7.70;99.90;;;;;;5005291;28;20137;-59
2022/02/14 03:13:49;;;;;;;1.75;1.60;;;7.70;99.90;;;;;;5004557;28;20908;-59
2022/02/14 03:16:15;;;;;;;2.65;2.28;;;7.70;99.90;;;;;;4989855;28;20182;-59
2022/02/14 03:18:42;;;;;;;2.50;1.33;;;7.70;99.90;;;;;;4998290;28;20689;-59
2022/02/14 03:21:09;;;;;;;2.88;1.20;;;7.70;99.90;;;;;;4985210;28;20077;-58
2022/02/14 03:23:36;;;;;;;3.28;1.58;;;7.70;99.90;;;;;;4996942;28;20133;-59
2022/02/14 03:26:03;;;;;;;4.18;1.23;;;7.60;99.90;;;;;;5004828;28;20476;-59
2022/02/14 03:28:30;;;;;;;2.72;1.13;;;7.60;99.90;;;;;;5003449;28;20085;-59
2022/02/14 03:30:57;;;;;;;2.08;1.10;;;7.60;99.90;;;;;;5005164;28;20160;-59
2022/02/14 03:33:24;;;;;;;2.63;1.10;;;7.60;99.90;;;;;;4997297;28;20096;-59
2022/02/14 03:35:51;;;;;;;1.50;1.00;;;7.60;99.90;;;;;;5000218;28;20129;-59
2022/02/14 03:38:18;;;;;;;2.72;1.10;;;7.50;99.90;;;;;;5005603;28;20494;-59
2022/02/14 03:40:45;;;;;;;1.60;0.95;;;7.50;99.90;;;;;;5004628;28;20077;-58
2022/02/14 03:43:13;;;;;;;2.88;1.10;;;7.50;99.90;;;;;;5004858;28;20065;-58
2022/02/14 03:45:41;;;;;;;1.35;0.77;;;7.50;99.90;;;;;;5003965;28;20085;-59
2022/02/14 03:48:08;;;;;;;3.53;1.02;;;7.50;99.90;;;;;;5005787;28;20158;-59
2022/02/14 03:50:35;;;;;;;2.22;1.00;;;7.50;99.90;;;;;;5001306;28;20121;-58
2022/02/14 03:53:02;;;;;;;1.95;1.00;;;7.50;99.90;;;;;;5002930;28;20136;-58
2022/02/14 03:55:28;;;;;;;1.38;0.80;;;7.50;99.90;;;;;;5004954;28;20493;-58
2022/02/14 03:57:55;;;;;;;3.33;0.80;;;7.50;99.90;;;;;;5005344;28;20073;-59
2022/02/14 04:00:23;;;;;;;1.55;0.90;;;7.50;99.90;;;;;;5002899;28;20081;-58
2022/02/14 04:02:49;;;;;;;2.55;0.85;;;7.50;99.90;;;;;;4988125;28;20046;-58
2022/02/14 04:05:17;;;;;;;1.73;0.80;;;7.50;99.90;;;;;;4983742;28;20510;-59
2022/02/14 04:07:44;;;;;;;2.33;0.73;;;7.50;99.90;;;;;;4992864;28;20092;-59
2022/02/14 04:10:13;;;;;;;1.80;0.95;;;7.50;99.90;;;;;;4999372;28;20088;-58
2022/02/14 04:12:40;;;;;;;2.55;0.95;;;7.50;99.90;;;;;;4996210;28;20562;-59
2022/02/14 04:15:07;;;;;;;3.30;1.17;;;7.50;99.90;;;;;;4984985;28;20217;-58
2022/02/14 04:17:34;;;;;;;1.83;0.80;;;7.50;99.90;;;;;;4998393;28;20459;-58
2022/02/14 04:20:01;;;;;;;2.08;0.93;;;7.50;99.90;;;;;;5004675;28;20141;-58
2022/02/14 04:22:27;;;;;;;2.20;1.00;;;7.50;99.90;;;;;;5004783;28;20117;-58
2022/02/14 04:24:54;;;;;;;2.13;0.90;;;7.50;99.90;;;;;;4991653;28;20129;-58
2022/02/14 04:27:21;;;;;;;2.50;0.90;;;7.50;99.90;;;;;;4996722;28;20310;-58
2022/02/14 04:29:48;;;;;;;2.92;1.67;;;7.40;99.90;;;;;;4987832;28;20129;-58
2022/02/14 04:32:14;;;;;;;2.10;0.85;;;7.40;99.90;;;;;;4997042;28;20046;-58
2022/02/14 04:34:41;;;;;;;1.90;1.00;;;7.40;99.90;;;;;;4989219;28;20089;-58
2022/02/14 04:37:08;;;;;;;1.90;0.88;;;7.40;99.90;;;;;;5001582;28;20100;-58
2022/02/14 04:39:35;;;;;;;3.50;1.10;;;7.40;99.90;;;;;;4997661;28;20104;-58
2022/02/14 04:42:02;;;;;;;2.58;1.00;;;7.40;99.90;;;;;;5004822;28;20449;-58
2022/02/14 04:44:30;;;;;;;2.63;1.02;;;7.30;99.90;;;;;;5002341;28;20565;-58
2022/02/14 04:46:57;;;;;;;2.45;1.08;;;7.30;99.90;;;;;;5004576;28;20058;-59
2022/02/14 04:49:23;;;;;;;2.13;1.30;;;7.30;99.90;;;;;;4991512;28;20089;-58
2022/02/14 04:51:50;;;;;;;2.58;1.13;;;7.30;99.90;;;;;;4990384;28;20092;-58
2022/02/14 04:54:17;;;;;;;2.33;1.10;;;7.30;99.90;;;;;;4999611;28;20513;-59
2022/02/14 04:56:43;;;;;;;1.33;0.85;;;7.30;99.90;;;;;;4987945;28;20216;-58
2022/02/14 04:59:10;;;;;;;1.48;0.90;;;7.20;99.90;;;;;;4993074;28;20092;-59
2022/02/14 05:01:38;;;;;;;1.35;0.95;;;7.20;99.90;;;;;;4992916;28;20050;-59
2022/02/14 05:04:05;;;;;;;2.40;0.98;;;7.30;99.90;;;;;;4998496;28;20615;-59
2022/02/14 05:06:31;;;;;;;0.73;0.73;;;7.30;99.90;;;;;;5003573;28;20099;-59
2022/02/14 05:08:58;;;;;;;3.47;1.05;;;7.30;99.90;;;;;;5003725;28;20423;-58
2022/02/14 05:11:25;;;;;;;2.05;1.00;;;7.30;99.90;;;;;;5002192;28;20077;-58
2022/02/14 05:13:51;;;;;;;2.08;0.90;;;7.30;99.90;;;;;;4994262;28;20527;-58
2022/02/14 05:16:23;;;;;;;2.90;0.93;;;7.20;99.90;;;;;;4984528;28;20129;-59
2022/02/14 05:18:50;;;;;;;2.60;0.90;;;7.20;99.90;;;;;;4989951;28;20406;-59
2022/02/14 05:21:17;;;;;;;2.25;0.73;;;7.20;99.90;;;;;;5004537;28;20124;-58
2022/02/14 05:23:44;;;;;;;1.85;0.70;;;7.20;99.90;;;;;;4998132;28;20719;-58
2022/02/14 05:26:10;;;;;;;2.60;1.00;;;7.20;99.90;;;;;;4987930;28;20093;-59
2022/02/14 05:28:37;;;;;;;3.55;0.82;;;7.20;99.90;;;;;;5000896;28;20142;-59
2022/02/14 05:31:04;;;;;;;2.80;0.88;;;7.20;99.90;;;;;;4988656;28;20161;-58
2022/02/14 05:33:31;;;;;;;3.42;1.05;;;7.20;99.90;;;;;;4989665;28;20479;-58
2022/02/14 05:35:58;;;;;;;2.70;1.05;;;7.20;99.90;;;;;;5000356;28;20050;-58
2022/02/14 05:38:25;;;;;;;1.67;0.98;;;7.20;99.90;;;;;;5003243;28;20577;-56
2022/02/14 05:40:51;;;;;;;2.90;0.60;;;7.20;99.90;;;;;;5003912;28;20133;-58
2022/02/14 05:43:18;;;;;;;2.95;0.90;;;7.20;99.90;;;;;;4992217;28;20125;-58
2022/02/14 05:45:45;;;;;;;2.17;0.73;;;7.20;99.90;;;;;;4988760;28;20133;-59
2022/02/14 05:48:14;;;;;;;1.15;0.55;;;7.20;99.90;;;;;;5003524;28;20374;-59
2022/02/14 05:50:41;;;;;;;3.60;0.70;;;7.10;99.90;;;;;;5002330;28;20073;-58
2022/02/14 05:53:07;;;;;;;1.80;0.70;;;7.00;99.90;;;;;;4991791;28;20145;-59
2022/02/14 05:55:34;;;;;;;1.92;0.80;;;7.00;99.90;;;;;;5007400;28;20630;-59
2022/02/14 05:58:01;;;;;;;1.33;0.40;;;7.00;99.90;;;;;;5005791;28;20449;-59
2022/02/14 06:00:28;;;;;;;3.15;0.90;;;7.00;99.90;;;;;;5004142;28;20393;-56
2022/02/14 06:02:54;;;;;;;1.40;0.60;;;6.90;99.90;;;;;;4993036;28;20078;-59
2022/02/14 06:05:21;;;;;;;2.03;0.70;;;6.90;99.90;;;;;;5004044;28;20132;-58
2022/02/14 06:07:48;;;;;;;1.40;0.70;;;6.90;99.90;;;;;;5004366;28;20144;-58
2022/02/14 06:10:15;;;;;;;3.22;1.10;;;6.80;99.90;;;;;;5008398;28;20084;-58
2022/02/14 06:12:41;;;;;;;2.05;0.95;;;6.80;99.90;;;;;;5012915;28;20133;-60
2022/02/14 06:15:09;;;;;;;1.75;0.80;;;6.70;99.90;;;;;;5009620;28;20128;-59
2022/02/14 06:17:35;;;;;;;2.17;0.85;;;6.70;99.90;;;;;;5013399;28;20600;-58
2022/02/14 06:20:02;;;;;;;2.03;0.98;;;6.70;99.90;;;;;;5006943;28;20092;-59
2022/02/14 06:22:29;;;;;;;1.52;0.73;;;6.60;99.90;;;;;;5014252;28;20537;-58
2022/02/14 06:24:56;;;;;;;2.08;0.80;;;6.60;99.90;;;;;;5016455;28;20081;-59
2022/02/14 06:27:23;;;;;;;1.45;0.70;;;6.60;99.90;;;;;;5002427;28;20528;-58
2022/02/14 06:29:49;;;;;;;3.08;1.00;;;6.50;99.90;;;;;;5002964;28;20148;-59
2022/02/14 06:32:16;;;;;;;4.38;0.80;;;6.50;99.90;;;;;;5001423;28;20066;-58
2022/02/14 06:34:43;;;;;;;2.22;0.75;;;6.50;99.90;;;;;;5002048;28;20084;-58
2022/02/14 06:37:10;;;;;;;1.95;0.70;;;6.50;99.90;;;;;;4995447;28;20093;-58
2022/02/14 06:39:37;;;;;;;1.95;0.63;;;6.50;99.90;;;;;;4997138;28;20157;-58
2022/02/14 06:42:04;;;;;;;2.80;0.77;;;6.50;99.90;;;;;;4990059;28;20528;-59
2022/02/14 06:44:30;;;;;;;3.65;1.05;;;6.50;99.90;;;;;;4994354;28;20056;-59
2022/02/14 06:46:57;;;;;;;2.10;0.80;;;6.50;99.90;;;;;;4999627;28;20053;-59
2022/02/14 06:49:24;;;;;;;2.90;0.85;;;6.50;99.90;;;;;;4999259;28;20139;-58
2022/02/14 06:51:51;;;;;;;2.33;0.70;;;6.50;99.90;;;;;;4989421;28;20430;-58
2022/02/14 06:54:18;;;;;;;0.93;0.60;;;6.40;99.90;;;;;;4991219;28;20132;-58
2022/02/14 06:56:44;;;;;;;2.53;0.80;;;6.40;99.90;;;;;;4988247;28;20157;-58
2022/02/14 06:59:11;;;;;;;1.40;0.70;;;6.40;99.90;;;;;;4991502;28;20120;-58
2022/02/14 07:01:38;;;;;;;2.03;0.80;;;6.40;99.90;;;;;;4999354;28;20085;-57
2022/02/14 07:04:05;;;;;;;2.10;0.70;;;6.30;99.90;;;;;;4999839;28;20049;-58
2022/02/14 07:06:31;;;;;;;2.42;0.82;;;6.30;99.90;;;;;;4980698;28;20104;-58
2022/02/14 07:08:59;;;;;;;2.92;0.77;;;6.40;99.90;;;;;;4991836;28;20532;-58
2022/02/14 07:11:26;;;;;;;1.25;0.57;;;6.30;99.90;;;;;;4983069;28;20141;-58
2022/02/14 07:13:53;;;;;;;2.38;0.73;;;6.30;99.90;;;;;;4994153;28;20140;-58
2022/02/14 07:16:20;;;;;;;1.42;0.60;;;6.30;99.90;;;;;;4998318;28;20042;-58
2022/02/14 07:18:46;;;;;;;0.77;0.50;;;6.30;99.90;;;;;;4987907;28;20129;-58
2022/02/14 07:21:14;;;;;;;1.77;0.95;;;6.30;99.90;;;;;;4982764;28;20694;-58
2022/02/14 07:23:41;;;;;;;1.08;0.57;;;6.30;99.90;;;;;;4994109;28;20152;-58
2022/02/14 07:26:08;;;;;;;2.80;1.13;;;6.30;99.90;;;;;;5000632;28;20148;-58
2022/02/14 07:28:35;;;;;;;2.78;0.80;;;6.30;99.90;;;;;;4993741;28;20581;-58
2022/02/14 07:31:01;;;;;;;2.53;0.60;;;6.30;99.90;;;;;;5001210;28;20093;-58
2022/02/14 07:33:31;;;;;;;1.80;0.85;;;6.30;99.90;;;;;;4999584;28;20133;-58
2022/02/14 07:35:58;;;;;;;2.55;0.90;;;6.30;99.90;;;;;;4987989;28;20173;-58
2022/02/14 07:38:24;;;;;;;0.93;0.55;;;6.40;99.90;;;;;;4990986;28;20144;-58
2022/02/14 07:40:51;;;;;;;4.43;0.70;;;6.40;99.90;;;;;;4987782;28;20054;-57
2022/02/14 07:43:18;;;;;;;3.22;0.80;;;6.40;99.90;;;;;;4988864;28;20164;-58
2022/02/14 07:45:45;;;;;;;2.45;0.80;;;6.40;99.90;;;;;;4992909;28;20077;-58
2022/02/14 07:48:12;;;;;;;2.33;0.90;;;6.40;99.90;;;;;;4989766;28;20409;-58
2022/02/14 07:50:40;;;;;;;2.75;0.77;;;6.40;99.90;;;;;;5002231;28;20138;-58
2022/02/14 07:53:09;;;;;;;2.22;0.65;;;6.40;99.90;;;;;;4997222;28;20491;-58
2022/02/14 07:55:36;;;;;;;3.25;0.80;;;6.40;99.90;;;;;;4987249;28;20137;-59
2022/02/14 07:58:03;;;;;;;6.07;1.15;;;6.40;99.90;;;;;;4988109;28;20404;-58
2022/02/14 08:00:30;;;;;;;1.17;0.70;;;6.40;99.90;;;;;;4980312;28;20054;-58
2022/02/14 08:02:57;;;;;;;1.02;0.50;;;6.40;99.90;;;;;;4986460;28;20049;-58
2022/02/14 08:05:23;;;;;;;1.90;0.68;;;6.40;99.90;;;;;;4982710;28;20501;-58
2022/02/14 08:07:50;;;;;;;1.98;0.95;;;6.40;99.90;;;;;;4986128;28;20042;-58
2022/02/14 08:10:37;;;;;;;2.75;1.10;;;6.40;99.90;;;;;;4990754;28;20053;-58
2022/02/14 08:13:04;;;;;;;1.52;0.70;;;6.40;99.90;;;;;;4985536;28;20137;-59
2022/02/14 08:15:30;;;;;;;2.67;0.80;;;6.40;99.90;;;;;;4980097;28;20133;-58
2022/02/14 08:18:00;;;;;;;1.73;0.80;;;6.50;99.90;;;;;;4987868;28;20396;-58
2022/02/14 08:20:27;;;;;;;4.90;0.90;;;6.50;99.90;;;;;;4987001;28;20073;-57
2022/02/14 08:22:53;;;;;;;1.50;0.70;;;6.50;99.90;;;;;;4992287;28;20125;-59
2022/02/14 08:25:20;;;;;;;2.00;0.85;;;6.50;99.90;;;;;;4994729;28;20089;-59
2022/02/14 08:27:47;;;;;;;2.55;1.10;;;6.50;99.90;;;;;;4992730;28;20084;-59
2022/02/14 08:30:14;;;;;;;2.40;0.80;;;6.60;99.90;;;;;;4985624;28;20413;-57
2022/02/14 08:32:43;;;;;;;1.70;1.05;;;6.70;99.90;;;;;;4995590;28;20105;-58
2022/02/14 08:35:10;;;;;;;2.75;0.93;;;6.70;99.90;;;;;;4998841;28;20480;-59
2022/02/14 08:37:37;;;;;;;2.50;1.00;;;6.70;99.90;;;;;;5006247;28;20160;-59
2022/02/14 08:40:04;;;;;;;2.15;0.70;;;6.80;99.90;;;;;;4990027;28;20712;-59
2022/02/14 08:42:31;;;;;;;2.13;0.90;;;6.80;99.90;;;;;;4985965;28;20116;-59
2022/02/14 08:44:59;;;;;;;3.17;1.00;;;6.90;99.90;;;;;;4983993;28;20181;-58
2022/02/14 08:47:25;;;;;;;2.45;1.15;;;6.90;99.90;;;;;;4993283;28;20472;-58
2022/02/14 08:49:57;;;;;;;4.85;1.00;;;6.80;99.90;;;;;;5017545;28;20135;-58
2022/02/14 08:52:27;;;;;;;3.72;1.00;;;6.90;99.90;;;;;;5002583;28;20511;-59
2022/02/14 08:54:54;;;;;;;2.65;1.35;;;6.90;99.90;;;;;;4992211;28;20545;-59
2022/02/14 08:57:21;;;;;;;1.60;0.90;;;7.00;99.90;;;;;;4988412;28;20148;-59
2022/02/14 08:59:48;;;;;;;1.45;0.60;;;7.00;99.90;;;;;;4997305;28;20477;-58
2022/02/14 09:02:14;;;;;;;4.75;1.05;;;7.10;99.90;;;;;;4998187;28;20251;-59
2022/02/14 09:04:41;;;;;;;3.47;1.67;;;7.10;99.90;;;;;;4990387;28;20201;-58
2022/02/14 09:07:08;;;;;;;3.63;0.85;;;7.20;99.90;;;;;;4996404;28;20480;-57
2022/02/14 09:09:35;;;;;;;2.15;1.00;;;7.20;99.90;;;;;;4998908;28;20253;-58
2022/02/14 09:12:01;;;;;;;2.65;1.25;;;7.30;99.90;;;;;;4998598;28;20947;-57
2022/02/14 09:14:28;;;;;;;3.35;1.02;;;7.40;99.90;;;;;;4991863;28;20140;-58
2022/02/14 09:16:55;;;;;;;3.67;1.23;;;7.40;99.90;;;;;;4988733;28;20541;-60
2022/02/14 09:19:22;;;;;;;3.28;1.20;;;7.40;99.90;;;;;;4988430;28;20156;-57
2022/02/14 09:21:49;;;;;;;2.78;1.40;;;7.50;99.90;;;;;;4997689;28;20046;-58
2022/02/14 09:24:15;;;;;;;5.80;1.10;;;7.50;99.90;;;;;;4997749;28;20050;-58
2022/02/14 09:26:44;;;;;;;4.05;1.27;;;7.60;99.90;;;;;;4998293;28;20077;-58
2022/02/14 09:29:12;;;;;;;3.60;0.98;;;7.60;99.90;;;;;;4997608;28;20369;-58
2022/02/14 09:31:38;;;;;;;4.43;1.40;;;7.60;99.90;;;;;;4993625;28;20480;-59
2022/02/14 09:34:05;;;;;;;4.13;1.30;;;7.70;99.90;;;;;;4994099;28;20058;-59
2022/02/14 09:36:33;;;;;;;4.13;1.23;;;7.70;99.90;;;;;;4996484;28;20486;-59
2022/02/14 09:39:00;;;;;;;3.35;1.20;;;7.80;99.90;;;;;;4997107;28;20140;-59
2022/02/14 09:41:26;;;;;;;2.65;0.95;;;7.70;99.90;;;;;;4998595;28;20488;-59
2022/02/14 09:43:53;;;;;;;3.47;1.02;;;7.80;99.90;;;;;;4996793;28;20137;-59
2022/02/14 09:46:21;;;;;;;5.43;1.20;;;7.80;99.90;;;;;;4997972;28;20516;-59
2022/02/14 09:48:48;;;;;;;3.22;1.00;;;7.90;99.90;;;;;;4997492;28;20084;-59
2022/02/14 09:51:17;;;;;;;3.22;1.00;;;7.90;99.90;;;;;;4996288;28;20148;-59
2022/02/14 09:53:44;;;;;;;3.22;0.93;;;7.90;99.90;;;;;;4997517;28;20140;-59
2022/02/14 09:56:11;;;;;;;3.75;1.00;;;8.00;99.90;;;;;;4998025;28;20132;-59
2022/02/14 09:58:38;;;;;;;3.92;1.10;;;8.00;99.90;;;;;;4996565;28;20169;-59
2022/02/14 10:01:04;;;;;;;3.15;1.25;;;8.10;99.90;;;;;;4996790;28;20527;-59
2022/02/14 10:03:33;;;;;;;3.55;1.20;;;8.10;99.90;;;;;;4997705;28;20085;-60
2022/02/14 10:06:01;;;;;;;3.42;1.60;;;8.10;99.90;;;;;;4998168;28;20157;-59
2022/02/14 10:08:31;;;;;;;3.20;1.10;;;8.20;99.90;;;;;;4997439;28;20382;-59
2022/02/14 10:11:12;;;;;;;3.28;1.10;;;8.20;99.90;;;;;;4997974;28;20180;-59
2022/02/14 10:13:39;;;;;;;1.30;0.73;;;8.30;99.90;;;;;;4995767;28;20133;-59
2022/02/14 10:16:11;;;;;;;2.20;1.00;;;8.40;99.90;;;;;;4996580;28;20983;-60
2022/02/14 10:18:39;;;;;;;3.08;0.93;;;8.40;99.90;;;;;;4997349;28;20088;-59
2022/02/14 10:21:24;;;;;;;3.88;1.10;;;8.40;99.90;;;;;;4998164;28;20504;-59
2022/02/14 10:24:05;;;;;;;3.08;1.08;;;8.50;99.90;;;;;;4997011;28;20108;-60
2022/02/14 10:26:40;;;;;;;4.05;1.27;;;8.50;99.90;;;;;;4997533;28;20636;-60
2022/02/14 10:29:09;;;;;;;3.40;1.08;;;8.60;99.90;;;;;;4996494;28;20057;-60
2022/02/14 10:31:43;;;;;;;2.90;0.90;;;8.60;99.90;;;;;;5001085;28;20742;-60
2022/02/14 10:34:09;;;;;;;4.05;1.17;;;8.70;99.90;;;;;;5002248;28;20085;-59
2022/02/14 10:36:38;;;;;;;3.53;1.00;;;8.80;99.90;;;;;;4998428;28;20129;-59
2022/02/14 10:39:06;;;;;;;2.85;0.90;;;8.80;99.90;;;;;;4990246;28;20549;-60
2022/02/14 10:41:33;;;;;;;2.90;1.00;;;8.80;99.90;;;;;;4985023;28;20581;-60
2022/02/14 10:45:07;;;;;;;2.22;0.80;;;8.90;99.90;;;;;;4996767;28;20512;-59
2022/02/14 10:47:15;;;;;;;3.80;0.88;;;9.00;99.90;;;;;;4986790;28;20046;-60
2022/02/14 10:49:43;;;;;;;1.90;0.90;;;9.20;99.90;;;;;;4996939;28;20420;-59
2022/02/14 10:52:12;;;;;;;3.17;0.90;;;9.40;99.90;;;;;;4994745;28;20135;-59
2022/02/14 10:54:41;;;;;;;2.92;0.77;;;9.50;99.90;;;;;;4993568;28;20083;-58
2022/02/14 10:57:32;;;;;;;3.30;1.05;;;9.50;99.90;;;;;;4999268;28;20156;-58
2022/02/14 11:00:12;;;;;;;2.85;0.90;;;9.50;99.90;;;;;;4990304;28;20172;-59
2022/02/14 11:02:43;;;;;;;2.17;0.70;;;9.40;99.90;;;;;;4990654;28;20057;-58
2022/02/14 11:05:11;;;;;;;1.77;0.70;;;9.40;99.90;;;;;;4993972;28;20050;-57
2022/02/14 11:07:38;;;;;;;6.30;1.17;;;9.40;99.90;;;;;;4988519;28;20062;-58
2022/02/14 11:10:09;;;;;;;1.77;0.98;;;9.40;99.90;;;;;;4988763;28;20172;-60
2022/02/14 11:12:38;;;;;;;5.15;0.95;;;9.40;99.90;;;;;;4988112;28;20219;-61
2022/02/14 11:15:07;;;;;;;3.72;1.15;;;9.50;99.90;;;;;;4999416;28;20085;-60
2022/02/14 11:17:35;;;;;;;3.72;0.93;;;9.60;99.90;;;;;;5000041;28;20133;-60
2022/02/14 11:20:07;;;;;;;4.30;1.00;;;9.60;99.90;;;;;;5000150;28;20368;-60
2022/02/14 11:22:35;;;;;;;1.65;1.17;;;9.50;99.90;;;;;;5002352;28;20112;-60
2022/02/14 11:25:05;;;;;;;4.80;1.45;;;9.40;99.90;;;;;;4999998;28;20552;-60
2022/02/14 11:27:35;;;;;;;2.97;0.90;;;9.30;99.90;;;;;;4999293;28;20077;-60
2022/02/14 11:30:05;;;;;;;2.53;0.88;;;9.50;99.90;;;;;;4986128;28;20085;-60
2022/02/14 11:32:39;;;;;;;2.88;0.60;;;9.70;99.90;;;;;;5005478;28;20857;-60
2022/02/14 11:35:17;;;;;;;2.97;1.38;;;9.80;99.90;;;;;;4997247;28;20152;-60
2022/02/14 11:37:49;;;;;;;2.78;1.10;;;9.80;99.90;;;;;;4998462;28;20252;-60
2022/02/14 11:40:25;;;;;;;2.92;0.90;;;9.80;99.90;;;;;;4996529;28;20261;-60
2022/02/14 11:43:11;;;;;;;2.60;1.05;;;9.60;99.90;;;;;;4981157;28;20512;-60
2022/02/14 11:45:38;;;;;;;4.25;1.08;;;9.60;99.90;;;;;;4991197;28;20050;-60
2022/02/14 11:48:25;;;;;;;4.30;1.77;;;9.70;99.90;;;;;;4987330;28;20173;-58
2022/02/14 11:51:08;;;;;;;4.40;1.02;;;9.80;99.90;;;;;;4997617;28;20164;-60
2022/02/14 11:53:36;;;;;;;;;;;9.80;99.90;;;;;;4994858;28;20140;-60
2022/02/14 11:56:21;;;;;;;3.28;1.63;;;9.80;99.90;;;;;;4979179;28;20000;-60
2022/02/14 11:59:19;;;;;;;2.88;1.20;;;9.90;99.90;;;;;;4992204;28;20712;-60
2022/02/14 12:01:49;;;;;;;3.88;0.73;;;9.90;99.90;;;;;;4997421;28;20442;-60
2022/02/14 12:05:05;;;;;;;1.65;0.70;;;9.90;99.90;;;;;;4988930;28;20133;-60
2022/02/14 12:07:33;;;;;;;2.55;0.80;;;9.90;99.90;;;;;;4990546;28;20462;-60
2022/02/14 12:09:59;;;;;;;2.05;0.85;;;10.10;99.90;;;;;;4995534;28;20297;-60
2022/02/14 12:12:58;;;;;;;1.00;0.60;;;10.10;99.90;;;;;;4999720;28;20249;-60
2022/02/14 12:21:06;;;;;;;1.73;0.90;;;10.50;99.90;;;;;;4984330;28;20159;-60
2022/02/14 12:23:58;;;;;;;5.10;1.10;;;10.60;99.90;;;;;;4985956;28;20054;-60
2022/02/14 12:26:31;;;;;;;2.55;0.68;;;10.60;99.90;;;;;;4988966;28;20188;-60
2022/02/14 12:31:58;;;;;;;5.43;0.85;;;10.40;99.90;;;;;;4989564;28;20129;-61
2022/02/14 12:34:27;;;;;;;1.40;0.70;;;10.40;99.90;;;;;;4990594;28;20054;-60
2022/02/14 12:36:59;;;;;;;1.58;0.70;;;10.40;99.90;;;;;;4978217;28;20649;-60
2022/02/14 12:39:30;;;;;;;3.63;0.60;;;10.20;99.90;;;;;;4995873;28;20149;-60
2022/02/14 12:41:57;;;;;;;2.38;0.88;;;10.00;99.90;;;;;;4989691;28;20050;-59
2022/02/14 12:44:29;;;;;;;2.40;0.80;;;10.00;99.90;;;;;;4985215;28;20144;-60
2022/02/14 12:46:56;;;;;;;1.98;0.68;;;10.00;99.90;;;;;;4989405;28;20125;-60
2022/02/14 12:49:23;;;;;;;2.80;0.90;;;10.10;99.90;;;;;;4983046;28;20312;-60
2022/02/14 12:51:50;;;;;;;0.82;0.52;;;10.20;99.90;;;;;;4977647;28;20054;-60
2022/02/14 12:54:17;;;;;;;1.50;0.70;;;10.30;99.90;;;;;;4992611;28;20132;-59
2022/02/14 12:56:44;;;;;;;4.00;0.90;;;10.60;99.90;;;;;;4997767;28;20535;-59
2022/02/14 12:59:11;;;;;;;3.08;1.02;;;10.60;99.90;;;;;;4984680;28;20081;-60
2022/02/14 13:01:43;;;;;;;2.35;0.80;;;10.50;99.90;;;;;;4996016;28;20060;-60
2022/02/14 13:04:14;;;;;;;2.47;0.77;;;10.50;99.90;;;;;;4996438;28;20129;-61
2022/02/14 13:06:42;;;;;;;1.58;0.90;;;10.50;99.90;;;;;;4998201;28;20081;-60
2022/02/14 13:09:28;;;;;;;1.55;0.70;;;10.40;99.90;;;;;;4987258;28;20078;-60
2022/02/14 13:12:01;;;;;;;1.38;0.60;;;10.50;99.90;;;;;;4979375;28;20058;-60
2022/02/14 13:14:46;;;;;;;1.20;0.70;;;10.60;99.90;;;;;;4987404;28;20112;-60